sensor_id;sensor_type;location;lat;lon;timestamp;P1;durP1;ratioP1;P2;durP2;ratioP2
5319;SDS011;2682;49.800;9.990;2022-09-01T00:00:39;5.00;;;5.00;;
5319;SDS011;2682;49.800;9.990;2022-09-01T00:03:06;5.50;;;5.00;;
5319;SDS011;2682;49.800;9.990;2022-09-01T00:05:34;5.25;;;3.75;;
5319;SDS011;2682;49.800;9.990;2022-09-01T00:08:01;5.00;;;5.00;;
5319;SDS011;2682;49.800;9.990;2022-09-01T00:10:28;5.50;;;5.50;;
5319;SDS011;2682;49.800;9.990;2022-09-01T00:12:54;4.75;;;4.75;;
5319;SDS011;2682;49.800;9.990;2022-09-01T00:15:21;5.00;;;4.50;;
5319;SDS011;2682;49.800;9.990;2022-09-01T00:17:49;3.75;;;3.75;;
5319;SDS011;2682;49.800;9.990;2022-09-01T00:20:15;6.00;;;5.00;;
5319;SDS011;2682;49.800;9.990;2022-09-01T00:22:42;4.25;;;4.25;;
5319;SDS011;2682;49.800;9.990;2022-09-01T00:25:08;5.25;;;4.25;;
5319;SDS011;2682;49.800;9.990;2022-09-01T00:27:35;6.00;;;6.00;;
5319;SDS011;2682;49.800;9.990;2022-09-01T00:30:01;5.00;;;4.75;;
5319;SDS011;2682;49.800;9.990;2022-09-01T00:32:28;5.00;;;5.00;;
5319;SDS011;2682;49.800;9.990;2022-09-01T00:34:56;4.75;;;4.75;;
5319;SDS011;2682;49.800;9.990;2022-09-01T00:37:23;5.00;;;5.00;;
5319;SDS011;2682;49.800;9.990;2022-09-01T00:39:49;5.00;;;4.00;;
5319;SDS011;2682;49.800;9.990;2022-09-01T00:42:16;4.75;;;3.75;;
5319;SDS011;2682;49.800;9.990;2022-09-01T00:44:43;5.50;;;5.00;;
5319;SDS011;2682;49.800;9.990;2022-09-01T00:47:09;4.50;;;4.00;;
5319;SDS011;2682;49.800;9.990;2022-09-01T00:49:37;5.25;;;5.00;;
5319;SDS011;2682;49.800;9.990;2022-09-01T00:52:07;4.50;;;3.75;;
5319;SDS011;2682;49.800;9.990;2022-09-01T00:54:36;5.00;;;5.00;;
5319;SDS011;2682;49.800;9.990;2022-09-01T00:57:04;4.75;;;4.50;;
5319;SDS011;2682;49.800;9.990;2022-09-01T00:59:31;5.50;;;5.00;;
5319;SDS011;2682;49.800;9.990;2022-09-01T01:01:58;5.50;;;5.00;;
5319;SDS011;2682;49.800;9.990;2022-09-01T01:04:24;5.00;;;5.00;;
5319;SDS011;2682;49.800;9.990;2022-09-01T01:06:51;7.00;;;5.50;;
5319;SDS011;2682;49.800;9.990;2022-09-01T01:09:24;5.00;;;5.00;;
5319;SDS011;2682;49.800;9.990;2022-09-01T01:11:51;5.00;;;5.00;;
5319;SDS011;2682;49.800;9.990;2022-09-01T01:14:18;5.00;;;5.00;;
5319;SDS011;2682;49.800;9.990;2022-09-01T01:16:45;5.00;;;5.00;;
5319;SDS011;2682;49.800;9.990;2022-09-01T01:19:14;5.00;;;5.00;;
5319;SDS011;2682;49.800;9.990;2022-09-01T01:22:05;5.00;;;5.00;;
5319;SDS011;2682;49.800;9.990;2022-09-01T01:24:52;5.00;;;4.00;;
5319;SDS011;2682;49.800;9.990;2022-09-01T01:27:19;5.25;;;5.25;;
5319;SDS011;2682;49.800;9.990;2022-09-01T01:29:46;5.50;;;5.50;;
5319;SDS011;2682;49.800;9.990;2022-09-01T01:32:14;5.00;;;5.00;;
5319;SDS011;2682;49.800;9.990;2022-09-01T01:34:42;5.50;;;5.25;;
5319;SDS011;2682;49.800;9.990;2022-09-01T01:37:11;6.00;;;6.00;;
5319;SDS011;2682;49.800;9.990;2022-09-01T01:39:39;6.00;;;6.00;;
5319;SDS011;2682;49.800;9.990;2022-09-01T01:42:09;5.25;;;5.00;;
5319;SDS011;2682;49.800;9.990;2022-09-01T01:44:36;6.50;;;6.50;;
5319;SDS011;2682;49.800;9.990;2022-09-01T01:47:04;5.50;;;5.25;;
5319;SDS011;2682;49.800;9.990;2022-09-01T01:49:34;5.00;;;5.00;;
5319;SDS011;2682;49.800;9.990;2022-09-01T01:52:01;6.00;;;6.00;;
5319;SDS011;2682;49.800;9.990;2022-09-01T01:54:28;7.50;;;7.50;;
5319;SDS011;2682;49.800;9.990;2022-09-01T01:56:56;5.50;;;5.00;;
5319;SDS011;2682;49.800;9.990;2022-09-01T01:59:24;4.00;;;4.00;;
5319;SDS011;2682;49.800;9.990;2022-09-01T02:01:53;5.50;;;5.50;;
5319;SDS011;2682;49.800;9.990;2022-09-01T02:04:20;5.33;;;5.33;;
5319;SDS011;2682;49.800;9.990;2022-09-01T02:06:47;5.00;;;5.00;;
5319;SDS011;2682;49.800;9.990;2022-09-01T02:09:14;5.75;;;5.75;;
5319;SDS011;2682;49.800;9.990;2022-09-01T02:11:41;5.50;;;5.50;;
5319;SDS011;2682;49.800;9.990;2022-09-01T02:14:11;8.00;;;8.00;;
5319;SDS011;2682;49.800;9.990;2022-09-01T02:16:41;5.00;;;5.00;;
5319;SDS011;2682;49.800;9.990;2022-09-01T02:19:08;5.75;;;5.75;;
5319;SDS011;2682;49.800;9.990;2022-09-01T02:21:36;5.75;;;5.75;;
5319;SDS011;2682;49.800;9.990;2022-09-01T02:24:08;5.00;;;5.00;;
5319;SDS011;2682;49.800;9.990;2022-09-01T02:26:37;7.50;;;5.75;;
5319;SDS011;2682;49.800;9.990;2022-09-01T02:29:08;5.50;;;5.50;;
5319;SDS011;2682;49.800;9.990;2022-09-01T02:31:43;5.00;;;4.75;;
5319;SDS011;2682;49.800;9.990;2022-09-01T02:34:10;5.75;;;5.75;;
5319;SDS011;2682;49.800;9.990;2022-09-01T02:36:38;7.75;;;7.75;;
5319;SDS011;2682;49.800;9.990;2022-09-01T02:39:11;7.75;;;5.75;;
5319;SDS011;2682;49.800;9.990;2022-09-01T02:41:38;6.00;;;5.50;;
5319;SDS011;2682;49.800;9.990;2022-09-01T02:44:05;5.50;;;5.50;;
5319;SDS011;2682;49.800;9.990;2022-09-01T02:46:36;7.00;;;5.50;;
5319;SDS011;2682;49.800;9.990;2022-09-01T02:49:07;6.00;;;6.00;;
5319;SDS011;2682;49.800;9.990;2022-09-01T02:51:39;6.50;;;5.00;;
5319;SDS011;2682;49.800;9.990;2022-09-01T02:54:06;5.75;;;5.00;;
5319;SDS011;2682;49.800;9.990;2022-09-01T02:56:33;6.00;;;5.50;;
5319;SDS011;2682;49.800;9.990;2022-09-01T02:58:59;5.00;;;5.00;;
5319;SDS011;2682;49.800;9.990;2022-09-01T03:01:28;5.00;;;5.00;;
5319;SDS011;2682;49.800;9.990;2022-09-01T03:03:55;5.00;;;5.00;;
5319;SDS011;2682;49.800;9.990;2022-09-01T03:06:24;5.00;;;5.00;;
5319;SDS011;2682;49.800;9.990;2022-09-01T03:08:52;8.75;;;8.00;;
5319;SDS011;2682;49.800;9.990;2022-09-01T03:11:19;8.00;;;8.00;;
5319;SDS011;2682;49.800;9.990;2022-09-01T03:13:48;6.50;;;6.50;;
5319;SDS011;2682;49.800;9.990;2022-09-01T03:16:15;8.00;;;7.75;;
5319;SDS011;2682;49.800;9.990;2022-09-01T03:18:41;6.00;;;6.00;;
5319;SDS011;2682;49.800;9.990;2022-09-01T03:21:08;6.75;;;6.75;;
5319;SDS011;2682;49.800;9.990;2022-09-01T03:23:41;7.25;;;7.25;;
5319;SDS011;2682;49.800;9.990;2022-09-01T03:26:08;6.75;;;5.75;;
5319;SDS011;2682;49.800;9.990;2022-09-01T03:28:35;5.75;;;5.75;;
5319;SDS011;2682;49.800;9.990;2022-09-01T03:31:02;8.00;;;6.75;;
5319;SDS011;2682;49.800;9.990;2022-09-01T03:33:29;7.00;;;6.50;;
5319;SDS011;2682;49.800;9.990;2022-09-01T03:35:56;6.75;;;5.75;;
5319;SDS011;2682;49.800;9.990;2022-09-01T03:38:23;6.75;;;6.75;;
5319;SDS011;2682;49.800;9.990;2022-09-01T03:40:52;7.75;;;6.75;;
5319;SDS011;2682;49.800;9.990;2022-09-01T03:43:23;8.25;;;7.50;;
5319;SDS011;2682;49.800;9.990;2022-09-01T03:45:51;8.25;;;7.25;;
5319;SDS011;2682;49.800;9.990;2022-09-01T03:48:19;7.00;;;6.00;;
5319;SDS011;2682;49.800;9.990;2022-09-01T03:50:46;6.00;;;6.00;;
5319;SDS011;2682;49.800;9.990;2022-09-01T03:53:20;7.00;;;7.00;;
5319;SDS011;2682;49.800;9.990;2022-09-01T03:55:49;7.00;;;7.00;;
5319;SDS011;2682;49.800;9.990;2022-09-01T03:58:20;7.50;;;7.00;;
5319;SDS011;2682;49.800;9.990;2022-09-01T04:00:48;7.00;;;5.00;;
5319;SDS011;2682;49.800;9.990;2022-09-01T04:03:16;7.25;;;7.00;;
5319;SDS011;2682;49.800;9.990;2022-09-01T04:05:46;9.25;;;8.50;;
5319;SDS011;2682;49.800;9.990;2022-09-01T04:08:13;8.00;;;7.50;;
5319;SDS011;2682;49.800;9.990;2022-09-01T04:10:41;7.00;;;7.00;;
5319;SDS011;2682;49.800;9.990;2022-09-01T04:13:13;7.50;;;7.50;;
5319;SDS011;2682;49.800;9.990;2022-09-01T04:15:41;7.00;;;7.00;;
5319;SDS011;2682;49.800;9.990;2022-09-01T04:18:07;8.50;;;8.00;;
5319;SDS011;2682;49.800;9.990;2022-09-01T04:20:34;7.75;;;7.50;;
5319;SDS011;2682;49.800;9.990;2022-09-01T04:23:12;7.00;;;7.00;;
5319;SDS011;2682;49.800;9.990;2022-09-01T04:25:41;8.00;;;8.00;;
5319;SDS011;2682;49.800;9.990;2022-09-01T04:28:07;11.00;;;8.00;;
5319;SDS011;2682;49.800;9.990;2022-09-01T04:30:48;8.00;;;7.50;;
5319;SDS011;2682;49.800;9.990;2022-09-01T04:33:15;7.00;;;7.00;;
5319;SDS011;2682;49.800;9.990;2022-09-01T04:35:42;10.75;;;10.25;;
5319;SDS011;2682;49.800;9.990;2022-09-01T04:38:09;7.75;;;7.75;;
5319;SDS011;2682;49.800;9.990;2022-09-01T04:40:36;9.50;;;9.50;;
5319;SDS011;2682;49.800;9.990;2022-09-01T04:43:03;7.75;;;7.75;;
5319;SDS011;2682;49.800;9.990;2022-09-01T04:45:29;8.00;;;7.75;;
5319;SDS011;2682;49.800;9.990;2022-09-01T04:48:00;8.50;;;8.00;;
5319;SDS011;2682;49.800;9.990;2022-09-01T04:50:27;8.25;;;8.00;;
5319;SDS011;2682;49.800;9.990;2022-09-01T04:52:56;8.00;;;8.00;;
5319;SDS011;2682;49.800;9.990;2022-09-01T04:55:23;7.00;;;7.00;;
5319;SDS011;2682;49.800;9.990;2022-09-01T04:57:52;6.00;;;6.00;;
5319;SDS011;2682;49.800;9.990;2022-09-01T05:00:20;8.00;;;8.00;;
5319;SDS011;2682;49.800;9.990;2022-09-01T05:02:50;8.00;;;8.00;;
5319;SDS011;2682;49.800;9.990;2022-09-01T05:05:19;8.50;;;7.75;;
5319;SDS011;2682;49.800;9.990;2022-09-01T05:07:47;8.25;;;7.50;;
5319;SDS011;2682;49.800;9.990;2022-09-01T05:10:19;8.00;;;7.75;;
5319;SDS011;2682;49.800;9.990;2022-09-01T05:12:46;7.75;;;7.75;;
5319;SDS011;2682;49.800;9.990;2022-09-01T05:15:13;9.00;;;8.75;;
5319;SDS011;2682;49.800;9.990;2022-09-01T05:17:41;7.25;;;7.25;;
5319;SDS011;2682;49.800;9.990;2022-09-01T05:20:08;9.25;;;8.50;;
5319;SDS011;2682;49.800;9.990;2022-09-01T05:22:37;8.25;;;8.00;;
5319;SDS011;2682;49.800;9.990;2022-09-01T05:25:05;9.25;;;9.00;;
5319;SDS011;2682;49.800;9.990;2022-09-01T05:27:38;11.00;;;9.00;;
5319;SDS011;2682;49.800;9.990;2022-09-01T05:30:05;8.75;;;8.50;;
5319;SDS011;2682;49.800;9.990;2022-09-01T05:32:32;7.50;;;7.50;;
5319;SDS011;2682;49.800;9.990;2022-09-01T05:35:01;8.00;;;8.00;;
5319;SDS011;2682;49.800;9.990;2022-09-01T05:37:31;12.25;;;11.25;;
5319;SDS011;2682;49.800;9.990;2022-09-01T05:39:59;8.50;;;8.00;;
5319;SDS011;2682;49.800;9.990;2022-09-01T05:42:26;8.25;;;8.25;;
5319;SDS011;2682;49.800;9.990;2022-09-01T05:44:53;9.00;;;8.00;;
5319;SDS011;2682;49.800;9.990;2022-09-01T05:47:19;8.25;;;8.25;;
5319;SDS011;2682;49.800;9.990;2022-09-01T05:49:47;8.50;;;8.00;;
5319;SDS011;2682;49.800;9.990;2022-09-01T05:52:14;11.75;;;9.50;;
5319;SDS011;2682;49.800;9.990;2022-09-01T05:54:41;11.00;;;10.00;;
5319;SDS011;2682;49.800;9.990;2022-09-01T05:57:08;9.00;;;9.00;;
5319;SDS011;2682;49.800;9.990;2022-09-01T05:59:35;9.50;;;9.00;;
5319;SDS011;2682;49.800;9.990;2022-09-01T06:02:05;8.00;;;8.00;;
5319;SDS011;2682;49.800;9.990;2022-09-01T06:04:33;9.75;;;9.00;;
5319;SDS011;2682;49.800;9.990;2022-09-01T06:07:02;8.00;;;8.00;;
5319;SDS011;2682;49.800;9.990;2022-09-01T06:09:35;7.00;;;7.00;;
5319;SDS011;2682;49.800;9.990;2022-09-01T06:12:02;10.50;;;9.00;;
5319;SDS011;2682;49.800;9.990;2022-09-01T06:14:31;9.00;;;9.00;;
5319;SDS011;2682;49.800;9.990;2022-09-01T06:16:57;9.75;;;9.00;;
5319;SDS011;2682;49.800;9.990;2022-09-01T06:19:24;8.75;;;8.50;;
5319;SDS011;2682;49.800;9.990;2022-09-01T06:21:51;11.75;;;8.75;;
5319;SDS011;2682;49.800;9.990;2022-09-01T06:24:17;11.00;;;10.00;;
5319;SDS011;2682;49.800;9.990;2022-09-01T06:26:44;10.00;;;8.50;;
5319;SDS011;2682;49.800;9.990;2022-09-01T06:29:11;9.75;;;9.00;;
5319;SDS011;2682;49.800;9.990;2022-09-01T06:31:40;10.00;;;9.50;;
5319;SDS011;2682;49.800;9.990;2022-09-01T06:34:07;9.25;;;8.50;;
5319;SDS011;2682;49.800;9.990;2022-09-01T06:36:41;9.00;;;9.00;;
5319;SDS011;2682;49.800;9.990;2022-09-01T06:39:10;8.00;;;8.00;;
5319;SDS011;2682;49.800;9.990;2022-09-01T06:41:43;9.00;;;9.00;;
5319;SDS011;2682;49.800;9.990;2022-09-01T06:44:13;9.25;;;8.25;;
5319;SDS011;2682;49.800;9.990;2022-09-01T06:46:47;7.00;;;7.00;;
5319;SDS011;2682;49.800;9.990;2022-09-01T06:49:14;8.75;;;7.25;;
5319;SDS011;2682;49.800;9.990;2022-09-01T06:51:40;8.00;;;7.75;;
5319;SDS011;2682;49.800;9.990;2022-09-01T06:54:07;7.00;;;7.00;;
5319;SDS011;2682;49.800;9.990;2022-09-01T06:56:38;6.25;;;6.25;;
5319;SDS011;2682;49.800;9.990;2022-09-01T06:59:04;6.25;;;6.00;;
5319;SDS011;2682;49.800;9.990;2022-09-01T07:01:32;7.00;;;7.00;;
5319;SDS011;2682;49.800;9.990;2022-09-01T07:04:00;7.50;;;7.00;;
5319;SDS011;2682;49.800;9.990;2022-09-01T07:06:30;7.75;;;7.75;;
5319;SDS011;2682;49.800;9.990;2022-09-01T07:08:57;7.25;;;7.25;;
5319;SDS011;2682;49.800;9.990;2022-09-01T07:11:26;6.25;;;6.00;;
5319;SDS011;2682;49.800;9.990;2022-09-01T07:13:54;7.00;;;7.00;;
5319;SDS011;2682;49.800;9.990;2022-09-01T07:16:21;7.00;;;7.00;;
5319;SDS011;2682;49.800;9.990;2022-09-01T07:18:48;6.00;;;6.00;;
5319;SDS011;2682;49.800;9.990;2022-09-01T07:21:16;6.00;;;6.00;;
5319;SDS011;2682;49.800;9.990;2022-09-01T07:23:43;4.75;;;4.25;;
5319;SDS011;2682;49.800;9.990;2022-09-01T07:26:09;7.25;;;6.75;;
5319;SDS011;2682;49.800;9.990;2022-09-01T07:28:42;6.50;;;4.25;;
5319;SDS011;2682;49.800;9.990;2022-09-01T07:31:15;7.75;;;7.00;;
5319;SDS011;2682;49.800;9.990;2022-09-01T07:33:44;6.50;;;6.50;;
5319;SDS011;2682;49.800;9.990;2022-09-01T07:36:13;7.00;;;7.00;;
5319;SDS011;2682;49.800;9.990;2022-09-01T07:38:41;6.50;;;5.00;;
5319;SDS011;2682;49.800;9.990;2022-09-01T07:41:08;8.50;;;8.00;;
5319;SDS011;2682;49.800;9.990;2022-09-01T07:43:37;5.25;;;4.50;;
5319;SDS011;2682;49.800;9.990;2022-09-01T07:46:06;5.00;;;5.00;;
5319;SDS011;2682;49.800;9.990;2022-09-01T07:48:33;7.25;;;7.25;;
5319;SDS011;2682;49.800;9.990;2022-09-01T07:51:00;8.00;;;7.25;;
5319;SDS011;2682;49.800;9.990;2022-09-01T07:53:28;6.00;;;6.00;;
5319;SDS011;2682;49.800;9.990;2022-09-01T07:55:58;6.25;;;6.25;;
5319;SDS011;2682;49.800;9.990;2022-09-01T07:58:26;6.25;;;6.00;;
5319;SDS011;2682;49.800;9.990;2022-09-01T08:00:53;7.00;;;7.00;;
5319;SDS011;2682;49.800;9.990;2022-09-01T08:03:21;6.50;;;5.75;;
5319;SDS011;2682;49.800;9.990;2022-09-01T08:05:48;5.75;;;5.75;;
5319;SDS011;2682;49.800;9.990;2022-09-01T08:08:17;4.00;;;4.00;;
5319;SDS011;2682;49.800;9.990;2022-09-01T08:10:44;4.50;;;4.50;;
5319;SDS011;2682;49.800;9.990;2022-09-01T08:13:12;6.75;;;6.50;;
5319;SDS011;2682;49.800;9.990;2022-09-01T08:15:39;6.00;;;6.00;;
5319;SDS011;2682;49.800;9.990;2022-09-01T08:18:05;7.50;;;7.00;;
5319;SDS011;2682;49.800;9.990;2022-09-01T08:20:32;7.00;;;7.00;;
5319;SDS011;2682;49.800;9.990;2022-09-01T08:23:02;6.75;;;6.75;;
5319;SDS011;2682;49.800;9.990;2022-09-01T08:25:28;4.00;;;4.00;;
5319;SDS011;2682;49.800;9.990;2022-09-01T08:27:55;6.75;;;5.25;;
5319;SDS011;2682;49.800;9.990;2022-09-01T08:30:23;5.50;;;5.00;;
5319;SDS011;2682;49.800;9.990;2022-09-01T08:32:50;3.75;;;3.50;;
5319;SDS011;2682;49.800;9.990;2022-09-01T08:35:16;4.00;;;4.00;;
5319;SDS011;2682;49.800;9.990;2022-09-01T08:37:43;4.75;;;4.75;;
5319;SDS011;2682;49.800;9.990;2022-09-01T08:40:11;5.50;;;5.50;;
5319;SDS011;2682;49.800;9.990;2022-09-01T08:42:45;5.25;;;5.25;;
5319;SDS011;2682;49.800;9.990;2022-09-01T08:45:15;7.00;;;6.25;;
5319;SDS011;2682;49.800;9.990;2022-09-01T08:47:47;5.00;;;5.00;;
5319;SDS011;2682;49.800;9.990;2022-09-01T08:50:14;8.00;;;8.00;;
5319;SDS011;2682;49.800;9.990;2022-09-01T08:52:45;4.50;;;4.50;;
5319;SDS011;2682;49.800;9.990;2022-09-01T08:55:15;8.00;;;6.00;;
5319;SDS011;2682;49.800;9.990;2022-09-01T08:57:45;6.00;;;6.00;;
5319;SDS011;2682;49.800;9.990;2022-09-01T09:00:16;6.25;;;5.75;;
5319;SDS011;2682;49.800;9.990;2022-09-01T09:02:48;6.25;;;6.00;;
5319;SDS011;2682;49.800;9.990;2022-09-01T09:05:21;5.00;;;5.00;;
5319;SDS011;2682;49.800;9.990;2022-09-01T09:07:57;6.75;;;6.75;;
5319;SDS011;2682;49.800;9.990;2022-09-01T09:10:29;6.50;;;6.50;;
5319;SDS011;2682;49.800;9.990;2022-09-01T09:13:02;5.75;;;5.75;;
5319;SDS011;2682;49.800;9.990;2022-09-01T09:15:36;5.50;;;5.50;;
5319;SDS011;2682;49.800;9.990;2022-09-01T09:18:08;5.50;;;5.50;;
5319;SDS011;2682;49.800;9.990;2022-09-01T09:20:36;6.00;;;5.25;;
5319;SDS011;2682;49.800;9.990;2022-09-01T09:23:04;6.00;;;6.00;;
5319;SDS011;2682;49.800;9.990;2022-09-01T09:25:35;5.00;;;5.00;;
5319;SDS011;2682;49.800;9.990;2022-09-01T09:28:02;4.25;;;4.25;;
5319;SDS011;2682;49.800;9.990;2022-09-01T09:30:28;5.50;;;5.00;;
5319;SDS011;2682;49.800;9.990;2022-09-01T09:32:57;4.00;;;4.00;;
5319;SDS011;2682;49.800;9.990;2022-09-01T09:35:26;5.50;;;5.00;;
5319;SDS011;2682;49.800;9.990;2022-09-01T09:37:55;5.00;;;5.00;;
5319;SDS011;2682;49.800;9.990;2022-09-01T09:40:52;4.75;;;4.50;;
5319;SDS011;2682;49.800;9.990;2022-09-01T09:43:20;5.50;;;4.50;;
5319;SDS011;2682;49.800;9.990;2022-09-01T09:45:48;4.75;;;4.75;;
5319;SDS011;2682;49.800;9.990;2022-09-01T09:48:25;5.50;;;5.00;;
5319;SDS011;2682;49.800;9.990;2022-09-01T09:50:53;5.00;;;5.00;;
5319;SDS011;2682;49.800;9.990;2022-09-01T09:53:24;5.00;;;5.00;;
5319;SDS011;2682;49.800;9.990;2022-09-01T09:55:58;5.25;;;5.25;;
5319;SDS011;2682;49.800;9.990;2022-09-01T09:58:27;7.00;;;6.75;;
5319;SDS011;2682;49.800;9.990;2022-09-01T10:01:01;6.00;;;6.00;;
5319;SDS011;2682;49.800;9.990;2022-09-01T10:03:39;4.25;;;4.25;;
5319;SDS011;2682;49.800;9.990;2022-09-01T10:06:10;4.75;;;4.75;;
5319;SDS011;2682;49.800;9.990;2022-09-01T10:08:38;4.50;;;4.50;;
5319;SDS011;2682;49.800;9.990;2022-09-01T10:11:09;4.25;;;4.25;;
5319;SDS011;2682;49.800;9.990;2022-09-01T10:13:36;4.00;;;4.00;;
5319;SDS011;2682;49.800;9.990;2022-09-01T10:16:03;5.25;;;5.25;;
5319;SDS011;2682;49.800;9.990;2022-09-01T10:18:34;4.00;;;4.00;;
5319;SDS011;2682;49.800;9.990;2022-09-01T10:21:03;4.00;;;3.75;;
5319;SDS011;2682;49.800;9.990;2022-09-01T10:23:34;6.00;;;6.00;;
5319;SDS011;2682;49.800;9.990;2022-09-01T10:26:03;4.00;;;4.00;;
5319;SDS011;2682;49.800;9.990;2022-09-01T10:28:31;3.75;;;3.75;;
5319;SDS011;2682;49.800;9.990;2022-09-01T10:30:59;4.50;;;3.75;;
5319;SDS011;2682;49.800;9.990;2022-09-01T10:33:26;3.50;;;3.00;;
5319;SDS011;2682;49.800;9.990;2022-09-01T10:35:52;4.00;;;3.50;;
5319;SDS011;2682;49.800;9.990;2022-09-01T10:38:21;4.00;;;4.00;;
5319;SDS011;2682;49.800;9.990;2022-09-01T10:40:50;3.00;;;3.00;;
5319;SDS011;2682;49.800;9.990;2022-09-01T10:43:35;5.00;;;5.00;;
5319;SDS011;2682;49.800;9.990;2022-09-01T10:48:47;3.50;;;3.50;;
5319;SDS011;2682;49.800;9.990;2022-09-01T10:53:59;4.80;;;4.80;;
5319;SDS011;2682;49.800;9.990;2022-09-01T10:56:37;4.80;;;4.80;;
5319;SDS011;2682;49.800;9.990;2022-09-01T10:59:05;4.50;;;4.50;;
5319;SDS011;2682;49.800;9.990;2022-09-01T11:05:08;7.00;;;7.00;;
5319;SDS011;2682;49.800;9.990;2022-09-01T11:07:31;5.40;;;5.20;;
5319;SDS011;2682;49.800;9.990;2022-09-01T11:10:13;5.00;;;4.50;;
5319;SDS011;2682;49.800;9.990;2022-09-01T11:12:50;4.00;;;4.00;;
5319;SDS011;2682;49.800;9.990;2022-09-01T11:15:36;4.60;;;4.60;;
5319;SDS011;2682;49.800;9.990;2022-09-01T11:18:07;4.75;;;4.00;;
5319;SDS011;2682;49.800;9.990;2022-09-01T11:20:35;5.60;;;5.60;;
5319;SDS011;2682;49.800;9.990;2022-09-01T11:23:03;5.00;;;4.60;;
5319;SDS011;2682;49.800;9.990;2022-09-01T11:25:35;3.75;;;3.50;;
5319;SDS011;2682;49.800;9.990;2022-09-01T11:28:07;4.40;;;4.00;;
5319;SDS011;2682;49.800;9.990;2022-09-01T11:30:35;4.50;;;4.50;;
5319;SDS011;2682;49.800;9.990;2022-09-01T11:33:06;4.67;;;4.67;;
5319;SDS011;2682;49.800;9.990;2022-09-01T11:35:37;4.20;;;4.00;;
5319;SDS011;2682;49.800;9.990;2022-09-01T11:38:04;3.60;;;3.00;;
5319;SDS011;2682;49.800;9.990;2022-09-01T11:40:34;5.00;;;4.00;;
5319;SDS011;2682;49.800;9.990;2022-09-01T11:43:02;3.40;;;3.40;;
5319;SDS011;2682;49.800;9.990;2022-09-01T11:45:32;5.40;;;5.40;;
5319;SDS011;2682;49.800;9.990;2022-09-01T11:48:04;4.80;;;4.80;;
5319;SDS011;2682;49.800;9.990;2022-09-01T11:50:32;4.00;;;4.00;;
5319;SDS011;2682;49.800;9.990;2022-09-01T11:53:00;4.00;;;4.00;;
5319;SDS011;2682;49.800;9.990;2022-09-01T11:55:28;3.60;;;3.60;;
5319;SDS011;2682;49.800;9.990;2022-09-01T11:57:55;4.00;;;4.00;;
5319;SDS011;2682;49.800;9.990;2022-09-01T12:00:24;3.00;;;3.00;;
5319;SDS011;2682;49.800;9.990;2022-09-01T12:02:53;4.75;;;4.00;;
5319;SDS011;2682;49.800;9.990;2022-09-01T12:05:24;5.00;;;4.00;;
5319;SDS011;2682;49.800;9.990;2022-09-01T12:07:51;5.25;;;5.25;;
5319;SDS011;2682;49.800;9.990;2022-09-01T12:10:18;4.75;;;4.25;;
5319;SDS011;2682;49.800;9.990;2022-09-01T12:12:45;3.25;;;3.25;;
5319;SDS011;2682;49.800;9.990;2022-09-01T12:15:16;2.50;;;2.50;;
5319;SDS011;2682;49.800;9.990;2022-09-01T12:17:44;4.00;;;4.00;;
5319;SDS011;2682;49.800;9.990;2022-09-01T12:20:25;5.00;;;4.80;;
5319;SDS011;2682;49.800;9.990;2022-09-01T12:22:53;3.00;;;3.00;;
5319;SDS011;2682;49.800;9.990;2022-09-01T12:25:20;4.00;;;3.50;;
5319;SDS011;2682;49.800;9.990;2022-09-01T12:27:48;4.00;;;4.00;;
5319;SDS011;2682;49.800;9.990;2022-09-01T12:30:14;2.75;;;2.75;;
5319;SDS011;2682;49.800;9.990;2022-09-01T12:32:41;3.75;;;3.25;;
5319;SDS011;2682;49.800;9.990;2022-09-01T12:35:13;4.00;;;4.00;;
5319;SDS011;2682;49.800;9.990;2022-09-01T12:37:41;3.00;;;3.00;;
5319;SDS011;2682;49.800;9.990;2022-09-01T12:40:20;4.00;;;3.50;;
5319;SDS011;2682;49.800;9.990;2022-09-01T12:42:48;4.00;;;4.00;;
5319;SDS011;2682;49.800;9.990;2022-09-01T12:45:15;3.00;;;3.00;;
5319;SDS011;2682;49.800;9.990;2022-09-01T12:48:01;4.00;;;4.00;;
5319;SDS011;2682;49.800;9.990;2022-09-01T12:50:35;3.50;;;3.50;;
5319;SDS011;2682;49.800;9.990;2022-09-01T12:53:14;6.50;;;6.50;;
5319;SDS011;2682;49.800;9.990;2022-09-01T12:55:51;6.00;;;5.75;;
5319;SDS011;2682;49.800;9.990;2022-09-01T12:58:19;3.00;;;3.00;;
5319;SDS011;2682;49.800;9.990;2022-09-01T13:00:53;3.75;;;3.75;;
5319;SDS011;2682;49.800;9.990;2022-09-01T13:03:20;4.25;;;4.00;;
5319;SDS011;2682;49.800;9.990;2022-09-01T13:05:48;3.00;;;3.00;;
5319;SDS011;2682;49.800;9.990;2022-09-01T13:08:17;3.00;;;3.00;;
5319;SDS011;2682;49.800;9.990;2022-09-01T13:10:45;3.00;;;3.00;;
5319;SDS011;2682;49.800;9.990;2022-09-01T13:13:16;3.50;;;3.50;;
5319;SDS011;2682;49.800;9.990;2022-09-01T13:15:44;4.00;;;4.00;;
5319;SDS011;2682;49.800;9.990;2022-09-01T13:18:12;4.50;;;4.00;;
5319;SDS011;2682;49.800;9.990;2022-09-01T13:20:38;3.00;;;3.00;;
5319;SDS011;2682;49.800;9.990;2022-09-01T13:23:06;4.00;;;4.00;;
5319;SDS011;2682;49.800;9.990;2022-09-01T13:25:34;2.50;;;2.50;;
5319;SDS011;2682;49.800;9.990;2022-09-01T13:28:01;4.00;;;4.00;;
5319;SDS011;2682;49.800;9.990;2022-09-01T13:30:28;4.00;;;4.00;;
5319;SDS011;2682;49.800;9.990;2022-09-01T13:32:55;3.75;;;3.75;;
5319;SDS011;2682;49.800;9.990;2022-09-01T13:35:22;3.00;;;3.00;;
5319;SDS011;2682;49.800;9.990;2022-09-01T13:37:49;3.00;;;3.00;;
5319;SDS011;2682;49.800;9.990;2022-09-01T13:40:16;4.00;;;4.00;;
5319;SDS011;2682;49.800;9.990;2022-09-01T13:42:44;4.00;;;4.00;;
5319;SDS011;2682;49.800;9.990;2022-09-01T13:45:11;3.50;;;3.50;;
5319;SDS011;2682;49.800;9.990;2022-09-01T13:47:38;4.50;;;4.50;;
5319;SDS011;2682;49.800;9.990;2022-09-01T13:50:05;4.50;;;4.50;;
5319;SDS011;2682;49.800;9.990;2022-09-01T13:52:32;3.50;;;3.50;;
5319;SDS011;2682;49.800;9.990;2022-09-01T13:54:59;4.00;;;3.00;;
5319;SDS011;2682;49.800;9.990;2022-09-01T13:57:26;4.75;;;4.00;;
5319;SDS011;2682;49.800;9.990;2022-09-01T13:59:54;3.25;;;3.25;;
5319;SDS011;2682;49.800;9.990;2022-09-01T14:02:22;4.00;;;4.00;;
5319;SDS011;2682;49.800;9.990;2022-09-01T14:04:50;3.75;;;3.75;;
5319;SDS011;2682;49.800;9.990;2022-09-01T14:07:17;5.00;;;4.75;;
5319;SDS011;2682;49.800;9.990;2022-09-01T14:09:44;6.25;;;6.00;;
5319;SDS011;2682;49.800;9.990;2022-09-01T14:12:11;3.00;;;3.00;;
5319;SDS011;2682;49.800;9.990;2022-09-01T14:14:37;4.75;;;4.75;;
5319;SDS011;2682;49.800;9.990;2022-09-01T14:17:05;5.00;;;4.50;;
5319;SDS011;2682;49.800;9.990;2022-09-01T14:19:33;4.50;;;4.50;;
5319;SDS011;2682;49.800;9.990;2022-09-01T14:22:00;4.00;;;4.00;;
5319;SDS011;2682;49.800;9.990;2022-09-01T14:24:30;3.75;;;3.75;;
5319;SDS011;2682;49.800;9.990;2022-09-01T14:26:56;6.00;;;4.00;;
5319;SDS011;2682;49.800;9.990;2022-09-01T14:29:23;5.00;;;5.00;;
5319;SDS011;2682;49.800;9.990;2022-09-01T14:31:49;4.50;;;4.50;;
5319;SDS011;2682;49.800;9.990;2022-09-01T14:34:17;4.00;;;4.00;;
5319;SDS011;2682;49.800;9.990;2022-09-01T14:36:44;3.00;;;3.00;;
5319;SDS011;2682;49.800;9.990;2022-09-01T14:39:11;3.25;;;3.25;;
5319;SDS011;2682;49.800;9.990;2022-09-01T14:41:38;3.00;;;3.00;;
5319;SDS011;2682;49.800;9.990;2022-09-01T14:44:04;4.00;;;4.00;;
5319;SDS011;2682;49.800;9.990;2022-09-01T14:46:31;3.25;;;3.25;;
5319;SDS011;2682;49.800;9.990;2022-09-01T14:48:59;4.00;;;4.00;;
5319;SDS011;2682;49.800;9.990;2022-09-01T14:51:27;4.00;;;4.00;;
5319;SDS011;2682;49.800;9.990;2022-09-01T14:53:54;3.50;;;3.50;;
5319;SDS011;2682;49.800;9.990;2022-09-01T14:56:21;5.75;;;5.00;;
5319;SDS011;2682;49.800;9.990;2022-09-01T14:58:48;3.50;;;3.50;;
5319;SDS011;2682;49.800;9.990;2022-09-01T15:01:16;4.75;;;4.75;;
5319;SDS011;2682;49.800;9.990;2022-09-01T15:03:45;4.00;;;4.00;;
5319;SDS011;2682;49.800;9.990;2022-09-01T15:06:12;4.00;;;4.00;;
5319;SDS011;2682;49.800;9.990;2022-09-01T15:08:40;5.75;;;5.25;;
5319;SDS011;2682;49.800;9.990;2022-09-01T15:11:07;5.50;;;4.75;;
5319;SDS011;2682;49.800;9.990;2022-09-01T15:13:35;5.00;;;5.00;;
5319;SDS011;2682;49.800;9.990;2022-09-01T15:16:01;3.75;;;3.75;;
5319;SDS011;2682;49.800;9.990;2022-09-01T15:18:28;5.00;;;5.00;;
5319;SDS011;2682;49.800;9.990;2022-09-01T15:20:55;4.75;;;4.75;;
5319;SDS011;2682;49.800;9.990;2022-09-01T15:23:22;3.25;;;3.25;;
5319;SDS011;2682;49.800;9.990;2022-09-01T15:25:50;4.25;;;4.00;;
5319;SDS011;2682;49.800;9.990;2022-09-01T15:28:18;4.50;;;4.50;;
5319;SDS011;2682;49.800;9.990;2022-09-01T15:30:45;4.00;;;4.00;;
5319;SDS011;2682;49.800;9.990;2022-09-01T15:33:12;4.50;;;4.50;;